Terminal Aerodrome Forecast
Issued by NWS

Home | Current Version | Previous Version | Text Only | Print | Product List | Glossary On
Versions: 1 2 3 4 5 6 7 8 9 10 11 12
302
FTUS42 KGSP 220540
TAFAND
TAF
KAND 220540Z 2206/2306 18005KT P6SM FEW050
     FM220900 VRB02KT 6SM BR FEW050
     FM221400 23004KT P6SM FEW040
     FM221700 24006KT P6SM SCT045=

USA.gov is the U.S. government's official web portal to all federal, state and local government web resources and services.